Tiempo atmosférico en la estación meteorológica de Jerez De Los Caballeros, Badajoz (381 m.)



Fecha
DESCASC
Temp. máxima en grados centígrados (hora)
DESCASC
Temp. mínima en grados centígrados (hora)
DESCASC
Temp. media en grados centígrados
DESCASC
Racha de viento máxima en m/sg (hora)
DESCASC
Velocidad máxima media en intervalos de 10 minutos(hora)
DESCASC
Precipitaciones diarias en mm
DESCASC
Precipitaciones de 00:00 a 06:00 en mm
DESCASC
Precipitaciones de 06:00 a 12:00 en mm
DESCASC
Precipitaciones de 12:00 a 18:00 en mm
DESCASC
Precipitaciones de 18:00 a 24:00 en mm
DESCASC
14-12-2019 13.3 (15:40) 10.4 (08:20) 11.8 6.94 (00:10) 4.72 (14:20) 0 0 0 0 0
13-12-2019 14.3 (16:00) 11.8 (00:00) 13.1 16.67 (03:20) 10.28 (02:50) 0.8 0.4 0 0.4 0
12-12-2019 12.6 (15:50) 3.9 (03:00) 8.3 14.72 (15:30) 9.72 (16:10) 1 0 0 0 1
11-12-2019 13 (16:00) 2 (00:00) 7.5 10 (16:20) 6.39 (16:20) 0.2 0 0.2 0 0
10-12-2019 15.3 (15:20) 3.9 (00:00) 9.6 6.67 (09:10) 5.28 (09:20) 0 0 0 0 0
09-12-2019 17.4 (16:40) 7 (00:00) 12.2 6.39 (18:30) 4.72 (18:40) 0.2 0.2 0 0 0
08-12-2019 15.1 (14:20) 2.8 (00:00) 9 8.06 (14:20) 6.11 (14:20) 0 0 0 0 0
07-12-2019 17.9 (15:30) 4.6 (00:00) 11.2 5.56 (15:50) 4.17 (02:10) 0 0 0 0 0
06-12-2019 15.9 (16:10) 6.6 (00:00) 11.2 10.56 (02:20) 8.33 (02:20) 0 0 0 0 0
05-12-2019 14.5 (15:20) 7.1 (00:00) 10.8 15.56 (17:20) 10.56 (17:20) 0 0 0 0 0
04-12-2019 14.4 (15:50) 4.4 (00:00) 9.4 6.67 (17:10) 4.17 (16:40) 0 0 0 0 0
03-12-2019 14.1 (15:10) 6.5 (00:00) 10.3 12.22 (10:00) 8.33 (00:10) 0 0 0 0 0
02-12-2019 13.6 (15:00) 8.7 (00:00) 11.2 16.67 (14:40) 13.06 (14:40) 0 0 0 0 0
01-12-2019 13.4 (14:00) 9.7 (00:00) 11.5 11.39 (16:20) 8.61 (11:30) 17.4 0 1.4 6.6 9.4
30-11-2019 16.5 (15:30) 7.4 (00:00) 12 12.78 (20:30) 8.61 (20:40) 1.2 0 0 0 1.2
29-11-2019 18 (16:10) 10.8 (00:00) 14.4 6.67 (14:00) 4.72 (13:40) 0 0 0 0 0
28-11-2019 17.3 (14:40) 11.3 (00:00) 14.3 9.17 (13:40) 6.67 (13:20) 0 0 0 0 0
27-11-2019 16.4 (14:40) 11.3 (00:00) 13.8 12.22 (02:20) 9.17 (02:20) 0.4 0.2 0.2 0 0
26-11-2019 18.7 (14:50) 11.9 (00:00) 15.3 14.17 (18:10) 10 (14:20) 8.4 0.8 1.2 0 6.4
25-11-2019 18.5 (15:00) 11.6 (00:00) 15.1 13.33 (07:30) 9.44 (05:40) 2.6 1.2 1.4 0 0
24-11-2019 15 (14:50) 5.6 (00:00) 10.3 10 (23:40) 6.67 (15:00) 0 0 0 0 0
23-11-2019 13.9 (15:10) 7.4 (00:00) 10.6 22.5 (01:00) 14.44 (02:40) 0 0 0 0 0
22-11-2019 15.4 (15:10) 10.8 (00:00) 13.1 25 (15:10) 15.56 (17:20) 27 1.4 6.8 18.8 0
21-11-2019 14.6 (16:10) 10.4 (00:00) 12.5 8.33 (15:30) 6.11 (14:30) 3 0 2.6 0.4 0
20-11-2019 14.1 (15:50) 5.7 (00:00) 9.9 10 (09:30) 7.5 (09:30) 12.4 1.2 10.4 0 0.8
19-11-2019 12.9 (15:10) 2.1 (00:00) 7.5 5.83 (14:30) 4.17 (16:10) 0 0 0 0 0
18-11-2019 14 (15:50) 4.5 (00:00) 9.3 10.28 (00:10) 7.22 (00:30) 0 0 0 0 0
17-11-2019 13.5 (15:50) 4.9 (00:00) 9.2 15.83 (23:59) 10.28 (16:30) 15.2 0.2 0.8 7.2 7
16-11-2019 13.9 (15:50) 0.9 (00:00) 7.4 9.44 (16:40) 6.94 (16:40) 0 0 0 0 0

Gráficas

Temp. máximas Temp. mínimas Temp. medias Precipitaciones Rachas de viento máximas Velocidades máximas media en intervalos de 10 minutos

Datos horarios

Fecha y hora oficial Temperatura (ºC) Velocidad del viento (km/h) Dirección del viento Racha (km/h) Dirección de racha Precipitación (mm) Presión (hPa) Tendencia (hPa) Humedad (%)
2019-12-15 23:00:00 12.1 5 Sudeste 17 Sur 0 965 -1.6 83
2019-12-15 22:00:00 12.1 6 Sur 14 Sudeste 0 965.5 -1.5 84
2019-12-15 21:00:00 12.3 4 Sur 17 Sudeste 0 966.2 -1.2 82
2019-12-15 20:00:00 12.3 6 Sudeste 10 Este 0 966.6 -1.3 82
2019-12-15 19:00:00 12.6 6 Sudeste 18 Sur 0 967 -1.4 79
2019-12-15 18:00:00 12.9 10 Sur 23 Sur 0 967.4 -1.6 78
2019-12-15 17:00:00 13.2 13 Sur 29 Sur 0 967.9 -2.1 76
2019-12-15 16:00:00 13.6 17 Sur 30 Sur 0 968.4 -2.7 74
2019-12-15 15:00:00 14.1 17 Sur 30 Sur 0 969 -3 70
2019-12-15 14:00:00 14.4 13 Sur 32 Sudoeste 0 970 -2.6 68
2019-12-15 13:00:00 13.9 13 Sur 24 Sur 0 971.1 -1.4 67
2019-12-15 12:00:00 14.1 10 Sur 15 Sudoeste 0 972 -0.5 66
2019-12-15 11:00:00 13.1 8 Sur 13 Sur 0 972.6 0 73
2019-12-15 10:00:00 11.5 2 Oeste 7 Nordeste 0 972.5 0 81
2019-12-15 09:00:00 10.5 6 Este 8 Este 0 972.5 -0.2 89
2019-12-15 08:00:00 10.6 3 Nordeste 6 Oeste 0 972.6 -0.6 88
2019-12-15 07:00:00 10.8 6 Oeste 8 Oeste 0 972.5 -1.1 87
2019-12-15 06:00:00 10.7 2 Noroeste 6 Sur 0 972.7 -1.3 88
2019-12-15 05:00:00 10.8 4 Oeste 10 Oeste 0 973.2 -1.3 88
2019-12-15 04:00:00 11 3 Este 5 Sudoeste 0 973.6 -1.6 87
2019-12-15 03:00:00 11.1 4 Oeste 9 Sudoeste 0 974 -1.4 87
2019-12-15 02:00:00 11.3 6 Sudoeste 12 Sudoeste 0 974.5 -1.2 85
2019-12-15 01:00:00 11.5 5 Oeste 8 Oeste 0 975.2 -0.6 85
2019-12-15 00:00:00 11.7 2 Sur 5 Sur 0 975.4 -0.4 84
2019-12-14 23:00:00 11.7 4 Sudoeste 10 Sudoeste 0 975.7 -0.3 83
2019-12-14 22:00:00 12 6 Oeste 12 Oeste 0 975.8 -0.1 82
2019-12-14 21:00:00 12.2 7 Oeste 11 Oeste 0 975.8 -0.3 82
2019-12-14 20:00:00 12.4 3 Oeste 5 Sudoeste 0 976 -0.1 79
2019-12-14 19:00:00 12.4 0 Calma 9 Sudoeste 0 975.9 -0.1 80
2019-12-14 18:00:00 12.7 5 Sur 12 Sudoeste 0 976.1 -0.1 80
2019-12-14 17:00:00 13 8 Sudoeste 16 Sudoeste 0 976.1 -0.8 79
2019-12-14 16:00:00 13.2 14 Sudoeste 19 Sudoeste 0 976 -1.4 76
2019-12-14 15:00:00 13 12 Oeste 23 Sudoeste 0 976.2 -1.9 79
2019-12-14 14:00:00 12.4 14 Sudoeste 24 Sudoeste 0 976.9 -1.4 84
2019-12-14 13:00:00 12.7 13 Sudoeste 19 Sudoeste 0 977.4 -0.6 83
2019-12-14 12:00:00 12.1 10 Oeste 21 Oeste 0 978.1 0.3 86
2019-12-14 11:00:00 12.1 6 Oeste 10 Sudoeste 0 978.3 0.5 88
2019-12-14 10:00:00 10.8 4 Sur 9 Sur 0 978 0.4 90
2019-12-14 09:00:00 10.5 4 Sudoeste 7 Sudoeste 0 977.8 0.3 91
2019-12-14 08:00:00 10.5 6 Sudoeste 8 Sudoeste 0 977.8 0.3 90
2019-12-14 07:00:00 10.7 5 Sudoeste 12 Sudoeste 0 977.6 -0.3 90
2019-12-14 06:00:00 10.8 9 Oeste 14 Sudoeste 0 977.5 -0.4 90
2019-12-14 05:00:00 11 5 Sudoeste 9 Oeste 0 977.5 -0.5 90
2019-12-14 04:00:00 11.1 2 Sudoeste 14 Oeste 0 977.9 -0.5 89
2019-12-14 03:00:00 11.1 10 Oeste 17 Oeste 0 977.9 -0.6 88
2019-12-14 02:00:00 11.6 14 Oeste 23 Oeste 0 978 -0.6 87
2019-12-14 01:00:00 11.7 13 Sudoeste 25 Oeste 0 978.4 -0.1 88
2019-12-14 00:00:00 12 17 Oeste 28 Sudoeste 0 978.5 -0.2 87
2019-12-13 23:00:00 12 15 Oeste 29 Oeste 0 978.6 0.2 87
2019-12-13 22:00:00 12.1 19 Oeste 28 Oeste 0 978.5 0 88
2019-12-13 21:00:00 12.6 14 Sudoeste 25 Sudoeste 0 978.7 0.5 84
2019-12-13 20:00:00 13 18 Sudoeste 25 Sudoeste 0 978.4 0.3 82
2019-12-13 19:00:00 13.2 12 Sudoeste 23 Sudoeste 0 978.5 0.6 84
2019-12-13 18:00:00 13.4 14 Sudoeste 28 Oeste 0 978.2 0.2 82
2019-12-13 17:00:00 13.9 23 Oeste 43 Oeste 0 978.1 -0.5 78
2019-12-13 16:00:00 14.3 19 Oeste 35 Oeste 0 977.9 -1.5 79
2019-12-13 15:00:00 13.9 18 Oeste 28 Sudoeste 0 978 -1.7 85
2019-12-13 14:00:00 13.2 18 Sudoeste 32 Oeste 0.2 978.6 -0.9 89
2019-12-13 13:00:00 12.8 23 Oeste 36 Sudoeste 0.2 979.4 0.4 90
2019-12-13 12:00:00 12.5 24 Oeste 55 Sudoeste 0 979.7 1.2 89
2019-12-13 11:00:00 12.2 28 Oeste 46 Sudoeste 0 979.5 1.4 87
2019-12-13 10:00:00 11.9 23 Sudoeste 45 Sudoeste 0 979 1.6 88
2019-12-13 09:00:00 11.9 29 Oeste 50 Oeste 0 978.5 1.1 87
2019-12-13 08:00:00 11.9 28 Sudoeste 48 Oeste 0 978.1 0.7 87
2019-12-13 07:00:00 11.9 30 Sudoeste 45 Oeste 0 977.4 0 88
2019-12-13 06:00:00 12 32 Oeste 48 Sudoeste 0 977.4 0 87
2019-12-13 05:00:00 12.1 32 Oeste 50 Oeste 0 977.4 0 88
2019-12-13 04:00:00 12.4 34 Oeste 60 Sudoeste 0 977.4 0 89
2019-12-13 03:00:00 12.5 34 Oeste 52 Oeste 0.4 977.4 -0.1 91
2019-12-13 02:00:00 12.3 28 Sudoeste 42 Sudoeste 0 977.4 -0.1 92
2019-12-13 01:00:00 12 27 Sudoeste 45 Sudoeste 0 977.4 -0.1 92
2019-12-13 00:00:00 11.8 28 Sudoeste 44 Sudoeste 0.2 977.5 -0.3 93
2019-12-12 23:00:00 11.5 26 Sudoeste 43 Sudoeste 0.2 977.5 -0.1 92
2019-12-12 22:00:00 11.5 35 Sudoeste 49 Sudoeste 0.4 977.5 -0.6 92
2019-12-12 21:00:00 11 24 Sudoeste 45 Sudoeste 0 977.8 -0.8 91
2019-12-12 20:00:00 11 29 Sudoeste 39 Sudoeste 0.2 977.6 -0.8 88
2019-12-12 19:00:00 10.8 24 Sudoeste 44 Sudoeste 0 978.1 -0.3 88
2019-12-12 18:00:00 11.2 16 Sudoeste 44 Sudoeste 0 978.6 -0.4 83
2019-12-12 17:00:00 11.2 28 Sudoeste 48 Oeste 0 978.4 -1.9 82
2019-12-12 16:00:00 12.5 31 Sudoeste 53 Sudoeste 0 978.4 -2.4 71
2019-12-12 15:00:00 12.4 33 Oeste 49 Oeste 0 979 -2.9 71
2019-12-12 14:00:00 11.7 30 Sudoeste 43 Sudoeste 0 980.3 -2.9 74
2019-12-12 13:00:00 11.2 28 Sudoeste 40 Sudoeste 0 980.8 -1.2 78
2019-12-12 12:00:00 8.9 17 Sudoeste 23 Sudoeste 0 981.9 -0.3 89
2019-12-12 11:00:00 8.1 8 Sudoeste 16 Oeste 0 983.2 0.5 89
2019-12-12 10:00:00 7.1 10 Oeste 16 Sudoeste 0 982 0 91
2019-12-12 09:00:00 5.1 8 Sudoeste 13 Sudoeste 0 982.2 -0.1 90
2019-12-12 08:00:00 4.6 9 Sudoeste 15 Sudoeste 0 982.7 0 90
2019-12-12 07:00:00 4 12 Sudoeste 17 Oeste 0 982 -0.9 90
2019-12-12 06:00:00 4.4 13 Sudoeste 19 Oeste 0 982.3 -0.8 87
2019-12-12 05:00:00 6.4 17 Oeste 24 Oeste 0 982.7 -1 87
2019-12-12 04:00:00 4.8 8 Sur 16 Sudoeste 0 982.9 -1 84
2019-12-12 03:00:00 3.9 10 Sudoeste 13 Sudoeste 0 983.1 -1.1 83
2019-12-12 02:00:00 4.6 7 Sudoeste 12 Oeste 0 983.7 -0.4 78
2019-12-12 01:00:00 6.2 9 Oeste 12 Noroeste 0 983.9 -0.3 71
2019-12-12 00:00:00 7.2 8 Noroeste 16 Noroeste 0 984.2 0.1 65
2019-12-11 23:00:00 8.3 14 Noroeste 25 Noroeste 0 984.1 0.5 61
2019-12-11 22:00:00 8.5 17 Noroeste 31 Noroeste 0 984.2 1.3 63
2019-12-11 21:00:00 8.7 14 Noroeste 26 Noroeste 0 984.1 1.6 64
2019-12-11 20:00:00 8.6 18 Oeste 22 Oeste 0 983.6 1.6 70
2019-12-11 19:00:00 9.9 6 Sudoeste 14 Oeste 0 982.9 1 69
2019-12-11 18:00:00 11.3 10 Oeste 21 Noroeste 0 982.5 0.7 65
2019-12-11 17:00:00 12.3 13 Noroeste 36 Noroeste 0 982 0.4 62
2019-12-11 16:00:00 12.7 15 Noroeste 26 Noroeste 0 981.9 0.4 63
2019-12-11 15:00:00 11.1 10 Sudoeste 18 Oeste 0 981.8 -0.4 84
2019-12-11 14:00:00 10.2 12 Oeste 22 Oeste 0 981.6 -0.8 91
2019-12-11 13:00:00 9.8 21 Oeste 29 Oeste 0 981.5 -0.6 93
2019-12-11 12:00:00 8 8 Sudoeste 11 Oeste 0 982.2 0.4 92
2019-12-11 11:00:00 7.5 6 Oeste 9 Oeste 0.2 982.4 1.4 93
2019-12-11 10:00:00 5.4 5 Sudoeste 9 Sudoeste 0 982.1 1.6 92
2019-12-11 09:00:00 2.4 6 Sudoeste 8 Sudoeste 0 981.8 1.5 93
2019-12-11 08:00:00 2.4 6 Sudoeste 6 Sudoeste 0 981 0.3 92
2019-12-11 07:00:00 3.3 4 Sudoeste 5 Sudoeste 0 980.5 -0.6 92
2019-12-11 06:00:00 3.7 0 Calma 5 Sudeste 0 980.3 -0.7 91
2019-12-11 05:00:00 4.4 2 Este 6 Este 0 980.7 -0.8 91
2019-12-11 04:00:00 3.9 6 Este 7 Este 0 981.1 -0.4 91
2019-12-11 03:00:00 5.4 4 Este 8 Sudeste 0 981 -0.8 91
2019-12-11 02:00:00 5.4 6 Sudeste 8 Sudeste 0 981.5 -0.3 89
2019-12-11 01:00:00 6.1 6 Este 9 Este 0 981.5 -0.8 89
2019-12-11 00:00:00 8.5 0 Calma 4 Oeste 0 981.8 -0.2 89
2019-12-10 23:00:00 8.6 2 Noroeste 5 Nordeste 0 981.8 0.1 89
2019-12-10 22:00:00 9.2 3 Sur 6 Sudeste 0 982.3 0.9 84
2019-12-10 21:00:00 9.4 6 Sudeste 7 Sudeste 0 982 0.4 83
2019-12-10 20:00:00 11.3 3 Este 6 Nordeste 0 981.7 -0.1 78
2019-12-10 19:00:00 11.9 6 Este 9 Sudoeste 0 981.4 -0.3 78
2019-12-10 18:00:00 13.3 5 Sudoeste 14 Sudoeste 0 981.6 -0.4 71
2019-12-10 17:00:00 14.8 10 Sudoeste 14 Sudoeste 0 981.8 -1 64
2019-12-10 16:00:00 14.9 7 Sudoeste 10 Sudoeste 0 981.7 -2 65
2019-12-10 15:00:00 15.1 5 Sudoeste 8 Sudoeste 0 982 -2.3 54
2019-12-10 14:00:00 12 2 Norte 14 Este 0 982.8 -1.9 73
2019-12-10 13:00:00 8.9 14 Este 19 Sudeste 0 983.7 -0.5 89
2019-12-10 12:00:00 7.3 15 Este 19 Este 0 984.3 0.5 93
2019-12-10 11:00:00 5.3 18 Este 23 Este 0 984.7 1.1 93
2019-12-10 10:00:00 5 13 Este 24 Este 0 984.2 0.6 93
2019-12-10 09:00:00 5 13 Este 22 Este 0 983.8 -0.2 92
2019-12-10 08:00:00 5.1 17 Este 22 Nordeste 0 983.6 -0.4 89
2019-12-10 07:00:00 4.3 9 Este 15 Nordeste 0 983.6 -0.6 90
2019-12-10 06:00:00 4.2 2 Este 11 Este 0 984 -0.3 91
2019-12-10 05:00:00 4.8 9 Este 14 Nordeste 0 984 -0.8 90
2019-12-10 04:00:00 4.9 5 Este 13 Este 0 984.2 -0.8 91
2019-12-10 03:00:00 4.8 12 Este 15 Este 0 984.3 -1 91
2019-12-10 02:00:00 5.3 5 Sudoeste 8 Este 0 984.8 -0.5 87
2019-12-10 01:00:00 5.7 4 Sudeste 9 Sudeste 0 985 -0.6 86
2019-12-10 00:00:00 7 4 Sudoeste 9 Este 0 985.3 0 83
2019-12-09 23:00:00 8.3 3 Nordeste 9 Este 0 985.3 0.5 80
2019-12-09 22:00:00 8.8 4 Este 9 Sudeste 0 985.6 1.2 77
2019-12-09 21:00:00 11 3 Sudoeste 7 Sudeste 0 985.3 1.2 66
2019-12-09 20:00:00 11.7 5 Sudeste 19 Norte 0 984.8 0.7 63
2019-12-09 19:00:00 12.8 16 Norte 23 Norte 0 984.4 0.2 58
2019-12-09 18:00:00 14.6 14 Norte 18 Norte 0 984.1 -0.2 46
2019-12-09 17:00:00 17.2 4 Sur 9 Sudoeste 0 984.1 -0.6 63
2019-12-09 16:00:00 16.6 4 Sur 16 Sudoeste 0 984.2 -1.4 65
2019-12-09 15:00:00 17 8 Sudoeste 18 Sudoeste 0 984.3 -1.6 65
2019-12-09 14:00:00 16.2 5 Sur 15 Sur 0 984.7 -1.2 68
2019-12-09 13:00:00 14.7 5 Sur 10 Sudoeste 0 985.6 0.3 74
2019-12-09 12:00:00 13.4 2 Sudoeste 7 Sudoeste 0 985.9 1.1 92
2019-12-09 11:00:00 11.8 2 Noroeste 7 Sudeste 0 985.9 1.9 92
2019-12-09 10:00:00 12.2 3 Sudeste 7 Sudoeste 0 985.3 1.6 92
2019-12-09 09:00:00 11.3 4 Sudoeste 9 Este 0 984.8 1.8 93
2019-12-09 08:00:00 11.4 6 Este 9 Este 0 984 0.9 92
2019-12-09 07:00:00 12.2 6 Noroeste 9 Norte 0 983.7 0.5 93
2019-12-09 06:00:00 12.4 7 Sudoeste 8 Sudoeste 0 983 0 93
2019-12-09 05:00:00 12.3 6 Sudoeste 9 Oeste 0 983.1 0 93
2019-12-09 04:00:00 12.3 4 Sudoeste 9 Sudoeste 0 983.2 -0.3 93
2019-12-09 03:00:00 12.1 8 Sudoeste 12 Sudoeste 0.2 983 -0.3 92
2019-12-09 02:00:00 12.1 6 Sudoeste 12 Sur 0 983.1 0 92
2019-12-09 01:00:00 12.3 10 Sudoeste 13 Sudoeste 0 983.5 0.4 92
2019-12-09 00:00:00 12.3 9 Sudoeste 15 Oeste 0 983.3 0.1 91
2019-12-08 23:00:00 12.4 8 Sudoeste 10 Sudoeste 0 983.1 0.6 89
2019-12-08 22:00:00 12.4 6 Sudoeste 12 Sudoeste 0 983.1 0.7 89
2019-12-08 21:00:00 12.4 8 Sudoeste 14 Oeste 0 983.2 1 89
2019-12-08 20:00:00 12.5 6 Oeste 12 Oeste 0 982.5 0.7 88
2019-12-08 19:00:00 12.7 9 Oeste 13 Oeste 0 982.4 0.7 87
2019-12-08 18:00:00 13.4 7 Oeste 11 Oeste 0 982.2 0.7 83
2019-12-08 17:00:00 14 6 Sudoeste 16 Sudoeste 0 981.8 0.4 81
2019-12-08 16:00:00 13.9 13 Oeste 27 Oeste 0 981.7 -0.5 82
2019-12-08 15:00:00 14.6 17 Oeste 29 Sudoeste 0 981.5 -1.2 78
2019-12-08 14:00:00 14.3 7 Sudoeste 14 Sudoeste 0 981.4 -1.6 70
2019-12-08 13:00:00 11.9 4 Sudoeste 6 Oeste 0 982.2 -0.3 76
2019-12-08 12:00:00 8.9 3 Oeste 10 Este 0 982.7 0.6 90
2019-12-08 11:00:00 7.4 2 Este 9 Sudeste 0 983 1.3 93
2019-12-08 10:00:00 4.1 4 Nordeste 9 Este 0 982.5 1.6 93
2019-12-08 09:00:00 3.8 6 Este 10 Este 0 982.1 1.4 93
2019-12-08 08:00:00 3.5 4 Este 8 Este 0 981.7 0.8 93
2019-12-08 07:00:00 3.4 3 Nordeste 8 Este 0 980.9 -0.1 91
2019-12-08 06:00:00 3.9 5 Este 12 Este 0 980.7 -0.3 92
2019-12-08 05:00:00 4.9 5 Este 13 Este 0 980.9 -0.3 92
2019-12-08 04:00:00 4.9 6 Este 8 Sudeste 0 981 -0.4 91
2019-12-08 03:00:00 6 3 Oeste 12 Este 0 981 -0.4 90
2019-12-08 02:00:00 6 10 Este 14 Este 0 981.2 0.1 91
2019-12-08 01:00:00 6.8 3 Este 7 Este 0 981.4 0.5 86
2019-12-08 00:00:00 7.7 2 Oeste 6 Sudeste 0 981.4 1 85
2019-12-07 23:00:00 8.8 2 Sudeste 5 Sudoeste 0 981.1 1 82
2019-12-07 22:00:00 9.2 2 Noroeste 9 Sudeste 0 980.9 1.4 82
2019-12-07 21:00:00 10.6 2 Norte 9 Este 0 980.4 1.5 75
2019-12-07 20:00:00 12 3 Sur 11 Norte 0 980.1 1.7 69
2019-12-07 19:00:00 12.9 4 Nordeste 18 Noroeste 0 979.5 1.5 65
2019-12-07 18:00:00 14.4 13 Oeste 17 Oeste 0 978.9 0.9 59
2019-12-07 17:00:00 17.4 9 Sudoeste 17 Sudoeste 0 978.4 -0.2 49
2019-12-07 16:00:00 17.8 13 Sudoeste 20 Sudoeste 0 978 -1.1 49
2019-12-07 15:00:00 17.6 9 Sudoeste 15 Sur 0 978 -1.7 57
2019-12-07 14:00:00 16 4 Este 14 Este 0 978.6 -0.9 60
2019-12-07 13:00:00 14.5 11 Este 14 Este 0 979.1 0.1 68
2019-12-07 12:00:00 12.8 9 Este 19 Este 0 979.7 0.9 72
2019-12-07 11:00:00 10.1 9 Este 14 Este 0 979.5 1.1 81
2019-12-07 10:00:00 7.1 12 Este 15 Este 0 979 1.2 88
2019-12-07 09:00:00 6 6 Este 16 Este 0 978.8 1.2 91
2019-12-07 08:00:00 4.8 10 Este 15 Este 0 978.4 0.8 90
2019-12-07 07:00:00 7.1 10 Este 17 Nordeste 0 977.8 0.3 86
2019-12-07 06:00:00 5.7 13 Este 18 Este 0 977.6 0.3 91
2019-12-07 05:00:00 6.8 4 Sur 20 Nordeste 0 977.6 0.3 83
2019-12-07 04:00:00 8.4 12 Este 20 Nordeste 0 977.5 -0.3 82
2019-12-07 03:00:00 6.3 11 Este 19 Este 0 977.3 -0.5 88
2019-12-07 02:00:00 7.5 12 Nordeste 17 Nordeste 0 977.3 0 87
2019-12-07 01:00:00 8.5 8 Este 13 Este 0 977.8 0.8 81
2019-12-07 00:00:00 9.7 9 Este 15 Este 0 977.8 1 79
2019-12-06 23:00:00 9.2 8 Este 14 Este 0 977.3 1 81
2019-12-06 22:00:00 10.4 10 Nordeste 14 Nordeste 0 977 1.1 77
2019-12-06 21:00:00 10.5 6 Este 18 Nordeste 0 976.8 1.4 77
2019-12-06 20:00:00 11 10 Sudeste 19 Norte 0 976.3 1.1 75
2019-12-06 19:00:00 12.8 13 Norte 25 Norte 0 975.9 0.9 68
2019-12-06 18:00:00 13.8 19 Nordeste 24 Nordeste 0 975.4 0.4 64
2019-12-06 17:00:00 15.1 18 Nordeste 30 Nordeste 0 975.2 -0.2 57
2019-12-06 16:00:00 15.8 18 Nordeste 26 Nordeste 0 975 -1.1 53
2019-12-06 15:00:00 15.5 20 Este 29 Este 0 975 -1.5 58
2019-12-06 14:00:00 15.2 20 Este 27 Nordeste 0 975.4 -1.3 56
2019-12-06 13:00:00 14.2 19 Este 31 Este 0 976.1 -0.2 64
2019-12-06 12:00:00 12.3 23 Este 31 Este 0 976.5 1 70
2019-12-06 11:00:00 10.4 22 Este 34 Este 0 976.7 1.4 75
2019-12-06 10:00:00 9.2 19 Nordeste 29 Este 0 976.3 1.4 78
2019-12-06 09:00:00 7.2 19 Nordeste 24 Nordeste 0 975.5 1.3 86
2019-12-06 08:00:00 7.4 16 Este 24 Este 0 975.3 1.1 86
2019-12-06 07:00:00 6.6 15 Este 27 Este 0 974.9 0.9 86
2019-12-06 06:00:00 7.3 12 Este 21 Nordeste 0 974.2 0.9 84
2019-12-06 05:00:00 7.7 12 Este 24 Nordeste 0 974.2 0.9 82
2019-12-06 04:00:00 8.8 15 Nordeste 33 Nordeste 0 974 0.4 78
2019-12-06 03:00:00 9.1 26 Nordeste 38 Nordeste 0 973.3 -0.3 78
2019-12-06 02:00:00 9.4 27 Nordeste 35 Nordeste 0 973.3 -0.3 77
2019-12-06 01:00:00 9.6 25 Nordeste 36 Nordeste 0 973.6 0.4 76
2019-12-06 00:00:00 10.5 26 Nordeste 33 Nordeste 0 973.6 1.2 72
2019-12-05 23:00:00 10 20 Nordeste 27 Nordeste 0 973.6 1.7 74
2019-12-05 22:00:00 11 21 Nordeste 36 Nordeste 0 973.2 1.8 69
2019-12-05 21:00:00 12.2 24 Nordeste 32 Nordeste 0 972.4 1.6 61
2019-12-05 20:00:00 12.6 21 Nordeste 36 Nordeste 0 971.9 1.6 59
2019-12-05 19:00:00 12.8 21 Nordeste 44 Nordeste 0 971.4 1.3 60
2019-12-05 18:00:00 13.6 31 Nordeste 56 Nordeste 0 970.8 1 55
2019-12-05 17:00:00 13.9 34 Nordeste 48 Nordeste 0 970.3 -0.2 55
2019-12-05 16:00:00 13.9 28 Nordeste 45 Nordeste 0 970.1 -0.8 56
2019-12-05 15:00:00 14.2 36 Nordeste 49 Nordeste 0 969.8 -1.3 54
2019-12-05 14:00:00 13.9 28 Nordeste 44 Nordeste 0 970.5 -0.6 58
2019-12-05 13:00:00 13.4 33 Nordeste 46 Este 0 970.9 0.3 61
2019-12-05 12:00:00 12.8 22 Este 36 Nordeste 0 971.1 1 62
2019-12-05 11:00:00 10.7 16 Este 20 Este 0 971.1 1.8 76
2019-12-05 10:00:00 9.4 11 Este 14 Nordeste 0 970.6 1.9 81
2019-12-05 09:00:00 8.4 8 Nordeste 9 Norte 0 970.1 2.2 84
2019-12-05 08:00:00 7.6 5 Este 12 Este 0 969.3 1.3 86
2019-12-05 07:00:00 7.5 6 Nordeste 12 Este 0 968.7 1.1 87
2019-12-05 06:00:00 7.8 8 Este 15 Este 0 967.9 0.3 87
2019-12-05 05:00:00 8 9 Este 15 Este 0 968 0.4 85
2019-12-05 04:00:00 9.1 3 Este 8 Nordeste 0 967.6 0.1 81
2019-12-05 03:00:00 8.4 3 Sudeste 6 Norte 0 967.6 0.5 84
2019-12-05 02:00:00 8.3 3 Nordeste 5 Nordeste 0 967.6 1 85
2019-12-05 01:00:00 8.3 3 Sudoeste 7 Este 0 967.5 1 84
2019-12-05 00:00:00 9.2 6 Este 8 Sudeste 0 967.1 0.9 78
2019-12-04 23:00:00 8.5 5 Este 7 Este 0 966.6 0.7 82
2019-12-04 22:00:00 9.3 3 Este 8 Este 0 966.5 1.2 77
2019-12-04 21:00:00 9.4 4 Nordeste 6 Este 0 966.2 1.5 76
2019-12-04 20:00:00 9.7 5 Este 10 Este 0 965.9 1.5 73
2019-12-04 19:00:00 9.8 8 Este 13 Este 0 965.3 1.1 77
2019-12-04 18:00:00 10.8 4 Este 24 Norte 0 964.7 0.4 73
2019-12-04 17:00:00 11.3 13 Norte 21 Norte 0 964.4 -0.5 72
2019-12-04 16:00:00 14.1 5 Sudoeste 17 Sur 0 964.2 -1.1 64
2019-12-04 15:00:00 13.2 7 Sudoeste 13 Oeste 0 964.3 -1.6 65
2019-12-04 14:00:00 11.3 8 Sudoeste 16 Sudoeste 0 964.9 -1.1 75
2019-12-04 13:00:00 11.3 8 Sudoeste 13 Sudoeste 0 965.3 -0.5 77
2019-12-04 12:00:00 11 5 Sudoeste 11 Este 0 965.9 0.4 82
2019-12-04 11:00:00 7.3 8 Nordeste 9 Nordeste 0 966 0.6 90
2019-12-04 10:00:00 6.3 4 Este 8 Nordeste 0 965.8 0.4 92
2019-12-04 09:00:00 4.9 3 Nordeste 8 Este 0 965.5 -0.2 92
2019-12-04 08:00:00 5.4 3 Nordeste 6 Sur 0 965.4 -0.2 91
2019-12-04 07:00:00 5.3 4 Sudeste 6 Oeste 0 965.4 -0.7 91
2019-12-04 06:00:00 5.1 5 Oeste 10 Sudoeste 0 965.7 -1.1 90
2019-12-04 05:00:00 6.2 4 Este 9 Este 0 965.6 -1.5 89
2019-12-04 04:00:00 6.6 5 Nordeste 9 Nordeste 0 966.1 -1.4 89
2019-12-04 03:00:00 6.7 3 Este 8 Este 0 966.8 -1.3 89
2019-12-04 02:00:00 8.5 5 Norte 8 Noroeste 0 967.1 -1 80
2019-12-04 01:00:00 8.1 4 Oeste 8 Sudeste 0 967.5 -0.3 83
2019-12-04 00:00:00 8.4 6 Sudeste 10 Este 0 968.1 0.6 83
2019-12-03 23:00:00 10.1 6 Norte 17 Nordeste 0 968.1 0.9 72
2019-12-03 22:00:00 10.6 12 Norte 18 Nordeste 0 967.8 0.8 72
2019-12-03 21:00:00 11.7 14 Este 22 Nordeste 0 967.5 0.5 70
2019-12-03 20:00:00 12.3 15 Nordeste 27 Nordeste 0 967.2 0.4 65
2019-12-03 19:00:00 12.6 20 Nordeste 27 Nordeste 0 967 0.4 63
2019-12-03 18:00:00 12.6 16 Norte 31 Nordeste 0 967 0.4 64
2019-12-03 17:00:00 13 23 Nordeste 33 Nordeste 0 966.8 -0.2 62
2019-12-03 16:00:00 13.4 26 Nordeste 40 Nordeste 0 966.6 -1.4 61
2019-12-03 15:00:00 14 20 Nordeste 33 Nordeste 0 966.6 -1.9 60
2019-12-03 14:00:00 13.6 21 Nordeste 30 Nordeste 0 967 -1.9 61
2019-12-03 13:00:00 12.6 20 Este 37 Nordeste 0 968 -0.5 66
2019-12-03 12:00:00 11.5 28 Nordeste 36 Nordeste 0 968.5 -0.1 66
2019-12-03 11:00:00 11 27 Nordeste 41 Nordeste 0 968.9 0.5 67
2019-12-03 10:00:00 10.1 28 Nordeste 44 Nordeste 0 968.5 0.1 68
2019-12-03 09:00:00 8.5 16 Nordeste 30 Este 0 968.6 0.4 72
2019-12-03 08:00:00 8.2 20 Nordeste 27 Norte 0 968.4 -0.1 73
2019-12-03 07:00:00 7.6 6 Este 10 Este 0 968.4 -0.3 82
2019-12-03 06:00:00 7.8 4 Este 12 Este 0 968.2 -0.5 81
2019-12-03 05:00:00 8.1 7 Este 15 Este 0 968.5 -0.6 82
2019-12-03 04:00:00 7.9 12 Este 42 Nordeste 0 968.7 -0.8 82
2019-12-03 03:00:00 9.7 26 Nordeste 34 Nordeste 0 968.7 -0.5 75
2019-12-03 02:00:00 9.3 17 Este 26 Este 0 969.1 -0.3 77
2019-12-03 01:00:00 9.1 23 Este 34 Nordeste 0 969.5 0.2 79
2019-12-03 00:00:00 10.1 34 Nordeste 40 Nordeste 0 969.2 0.4 74
2019-12-02 23:00:00 10.1 24 Nordeste 31 Nordeste 0 969.4 1.5 74
2019-12-02 22:00:00 10.6 17 Nordeste 38 Nordeste 0 969.3 1.9 73
2019-12-02 21:00:00 11 35 Nordeste 51 Nordeste 0 968.8 2.2 70
2019-12-02 20:00:00 11 38 Nordeste 51 Nordeste 0 967.9 1.7 69
2019-12-02 19:00:00 11.3 33 Nordeste 51 Nordeste 0 967.4 1.6 67
2019-12-02 18:00:00 12 40 Nordeste 58 Nordeste 0 966.6 1.3 63
2019-12-02 17:00:00 12.6 37 Nordeste 59 Nordeste 0 966.2 0.4 62
2019-12-02 16:00:00 12.6 33 Nordeste 60 Nordeste 0 965.8 -0.3 66
2019-12-02 15:00:00 13.2 40 Nordeste 60 Nordeste 0 965.3 -1 61
2019-12-02 14:00:00 12.4 36 Nordeste 54 Nordeste 0 965.8 -0.6 68
2019-12-02 13:00:00 11.6 40 Nordeste 59 Nordeste 0 966.1 0.3 71
2019-12-02 12:00:00 11.4 36 Nordeste 55 Nordeste 0 966.3 1 72
2019-12-02 11:00:00 10.6 39 Nordeste 54 Nordeste 0 966.4 1.5 75
2019-12-02 10:00:00 9.8 36 Nordeste 49 Nordeste 0 965.8 1.3 78
2019-12-02 09:00:00 9.3 29 Nordeste 40 Nordeste 0 965.3 0.8 82
2019-12-02 08:00:00 8.8 28 Nordeste 42 Norte 0 964.9 0.3 85
2019-12-02 07:00:00 8.8 28 Nordeste 38 Nordeste 0 964.5 -0.2 83
2019-12-02 06:00:00 8.9 25 Nordeste 35 Nordeste 0 964.5 -0.4 85
2019-12-02 05:00:00 9 25 Nordeste 33 Nordeste 0 964.6 -0.3 85
2019-12-02 04:00:00 8.7 19 Nordeste 31 Norte 0 964.7 -0.3 86
2019-12-02 03:00:00 8.7 14 Norte 25 Norte 0 964.9 -0.3 85
2019-12-02 02:00:00 8.9 15 Norte 27 Norte 0 964.9 -0.2 84
2019-12-02 01:00:00 9.2 13 Norte 31 Norte 0 965 0.2 85
2019-12-02 00:00:00 10.1 18 Norte 26 Norte 0 965.2 0.5 85
2019-12-01 23:00:00 10.1 3 Nordeste 4 Norte 0.8 965.1 0.3 92
2019-12-01 22:00:00 10 4 Oeste 5 Oeste 0 964.8 0.1 92
2019-12-01 21:00:00 10.2 4 Oeste 8 Sudeste 1.8 964.7 0.2 91
2019-12-01 20:00:00 10.1 9 Sur 15 Sudoeste 2.6 964.8 0 91
2019-12-01 19:00:00 10.4 9 Sudoeste 20 Oeste 4.2 964.7 -0.2 90
2019-12-01 18:00:00 10.7 12 Sudoeste 20 Sudoeste 0.2 964.5 -1.1 90
2019-12-01 17:00:00 10.8 17 Sudoeste 41 Oeste 1 964.8 -1.6 87
2019-12-01 16:00:00 12.2 23 Sudoeste 35 Sudoeste 1 964.9 -2.3 83
2019-12-01 15:00:00 10.3 5 Oeste 35 Noroeste 4.4 965.6 -2.6 88
2019-12-01 14:00:00 12.7 24 Sudoeste 40 Sudoeste 0 966.4 -2.3 82
2019-12-01 13:00:00 12.2 24 Sudoeste 39 Sudoeste 0 967.2 -1.6 83
2019-12-01 12:00:00 11.9 27 Sudoeste 41 Sudoeste 0.2 968.2 -0.7 87
2019-12-01 11:00:00 11 23 Sudoeste 39 Sudoeste 0.6 968.7 -0.3 90
2019-12-01 10:00:00 10.7 21 Sudoeste 33 Sudoeste 0 968.8 -0.5 91
2019-12-01 09:00:00 10.2 21 Sudoeste 31 Sudoeste 0 968.9 -0.9 91
2019-12-01 08:00:00 10.1 21 Sudoeste 40 Sudoeste 0 969 -1.5 91
2019-12-01 07:00:00 10.3 21 Sudoeste 36 Sudoeste 0.6 969.3 -1.8 91
2019-12-01 06:00:00 10.4 17 Sudoeste 28 Sudoeste 0 969.8 -1.9 90
2019-12-01 05:00:00 10.6 15 Sudoeste 33 Sudoeste 0 970.5 -1.9 90
2019-12-01 04:00:00 10.6 18 Sudoeste 29 Sudoeste 0 971.1 -2.2 92
2019-12-01 03:00:00 10.4 8 Sudoeste 13 Sudoeste 0 971.7 -1.9 91
2019-12-01 02:00:00 10.5 6 Sudoeste 18 Sudoeste 0 972.4 -1.6 90
2019-12-01 01:00:00 11.2 15 Oeste 23 Sudoeste 0 973.3 -0.9 90
2019-12-01 00:00:00 11.5 12 Sudoeste 22 Oeste 0 973.6 -0.8 91
2019-11-30 23:00:00 11.5 12 Sudoeste 19 Sudoeste 0 974 0.3 91
2019-11-30 22:00:00 12 9 Sudoeste 31 Oeste 0.2 974.2 0.1 91
2019-11-30 21:00:00 12.1 22 Oeste 46 Oeste 0.8 974.4 0.4 88
2019-11-30 20:00:00 13.5 22 Sudoeste 30 Sudoeste 0.2 973.7 -0.4 91
2019-11-30 19:00:00 13.5 24 Sudoeste 42 Sudoeste 0 974.1 -0.4 89
2019-11-30 18:00:00 15.2 22 Sudoeste 30 Sudoeste 0 974 -1 74
2019-11-30 17:00:00 15.5 21 Sudoeste 35 Sudoeste 0 974.1 -2.2 71
2019-11-30 16:00:00 15.7 25 Sudoeste 36 Sudoeste 0 974.5 -2.7 71
2019-11-30 15:00:00 15.6 23 Sudoeste 32 Sudoeste 0 975 -3 73
2019-11-30 14:00:00 14.7 16 Sudoeste 21 Sudoeste 0 976.3 -1.9 78
2019-11-30 13:00:00 12.3 3 Norte 9 Este 0 977.2 -0.7 89
2019-11-30 12:00:00 11.2 4 Sudeste 8 Sudeste 0 978 0.4 91
2019-11-30 11:00:00 10 3 Sudeste 8 Este 0 978.2 0.4 92
2019-11-30 10:00:00 9 4 Este 9 Este 0 977.9 0.5 93
2019-11-30 09:00:00 8.2 2 Norte 8 Este 0 977.6 0 93
2019-11-30 08:00:00 8.3 3 Sudoeste 10 Este 0 977.8 -0.1 93
2019-11-30 07:00:00 9.1 3 Sudeste 9 Nordeste 0 977.4 -0.4 92
2019-11-30 06:00:00 8.3 5 Este 8 Este 0 977.6 0 92
2019-11-30 05:00:00 9 4 Este 10 Este 0 977.9 0.1 91
2019-11-30 04:00:00 9 7 Este 10 Este 0 977.8 -0.6 91
2019-11-30 03:00:00 9.9 5 Este 6 Nordeste 0 977.6 -0.9 91
2019-11-30 02:00:00 11.3 4 Este 5 Este 0 977.8 -0.5 88
2019-11-30 01:00:00 10.8 4 Este 7 Este 0 978.4 0.2 88
2019-11-30 00:00:00 10.8 4 Este 7 Sudeste 0 978.5 0.6 87
2019-11-29 23:00:00 12 3 Este 5 Nordeste 0 978.3 0.6 83
2019-11-29 22:00:00 11.7 4 Nordeste 7 Noroeste 0 978.2 0.5 86
2019-11-29 21:00:00 13.4 5 Oeste 6 Oeste 0 977.9 0.3 77
2019-11-29 20:00:00 14.3 5 Oeste 9 Oeste 0 977.7 0.3 73
2019-11-29 19:00:00 14.8 5 Oeste 11 Sur 0 977.7 0.4 72
2019-11-29 18:00:00 15.8 6 Sudoeste 11 Sudoeste 0 977.6 0.2 70
2019-11-29 17:00:00 16.9 8 Sudoeste 17 Sudoeste 0 977.4 -0.5 64
2019-11-29 16:00:00 17.8 9 Sudoeste 19 Sudoeste 0 977.3 -1 59
2019-11-29 15:00:00 16.9 14 Oeste 23 Sudoeste 0 977.4 -1.4 65
2019-11-29 14:00:00 17 16 Oeste 24 Sudoeste 0 977.9 -0.7 63
2019-11-29 13:00:00 16.8 12 Oeste 18 Oeste 0 978.3 0.3 64
2019-11-29 12:00:00 16.1 3 Oeste 8 Noroeste 0 978.8 1.3 73
2019-11-29 11:00:00 14.7 4 Este 9 Este 0 978.6 1.3 80
2019-11-29 10:00:00 13.1 6 Este 9 Este 0 978 1.2 86
2019-11-29 09:00:00 12.2 5 Este 9 Este 0 977.5 1.2 88
2019-11-29 08:00:00 12.5 4 Este 8 Este 0 977.3 0.9 87
2019-11-29 07:00:00 12.7 3 Noroeste 6 Noroeste 0 976.8 0.4 86
2019-11-29 06:00:00 12.4 3 Sudoeste 9 Sur 0 976.3 0.1 87
2019-11-29 05:00:00 12.2 3 Oeste 8 Sudoeste 0 976.4 0.4 88
2019-11-29 04:00:00 12.2 4 Sudoeste 12 Sudoeste 0 976.4 0.1 88
2019-11-29 03:00:00 12.7 9 Sudoeste 16 Sudoeste 0 976.2 0.2 88
2019-11-29 02:00:00 13.2 10 Sudoeste 18 Sudoeste 0 976 -0.1 87
2019-11-29 01:00:00 13.4 10 Sudoeste 17 Sudoeste 0 976.3 0.6 86
2019-11-29 00:00:00 13.5 13 Sudoeste 18 Sudoeste 0 976 0.8 85
2019-11-28 23:00:00 13.7 16 Sudoeste 21 Sudoeste 0 976.1 1.3 82
2019-11-28 22:00:00 14 11 Sudoeste 15 Sudoeste 0 975.7 1.3 77
2019-11-28 21:00:00 14 7 Sudoeste 10 Sudoeste 0 975.2 1 75
2019-11-28 20:00:00 14.3 6 Sudoeste 9 Sudoeste 0 974.8 0.6 73
2019-11-28 19:00:00 14.8 6 Sudoeste 15 Sudoeste 0 974.4 0.5 70
2019-11-28 18:00:00 15.3 9 Oeste 17 Sudoeste 0 974.2 0.1 69
2019-11-28 17:00:00 15.9 14 Sudoeste 27 Sudoeste 0 974.2 -0.4 62
2019-11-28 16:00:00 16.5 16 Sudoeste 27 Sudoeste 0 973.9 -1.3 62
2019-11-28 15:00:00 16.8 14 Sudoeste 31 Sudoeste 0 974.1 -1.6 63
2019-11-28 14:00:00 15.9 18 Sudoeste 33 Sudoeste 0 974.6 -0.9 71
2019-11-28 13:00:00 15 22 Sudoeste 29 Sudoeste 0 975.2 -0.1 73
2019-11-28 12:00:00 15 15 Sudoeste 21 Sudoeste 0 975.7 0.7 70
2019-11-28 11:00:00 14.4 4 Sudoeste 9 Sur 0 975.5 0.9 73
2019-11-28 10:00:00 12.8 0 Calma 9 Este 0 975.3 1.3 84
2019-11-28 09:00:00 11.9 3 Nordeste 6 Este 0 975 1.4 89
2019-11-28 08:00:00 11.7 0 Calma 13 Sudoeste 0 974.6 1.2 89
2019-11-28 07:00:00 11.7 12 Sudoeste 18 Oeste 0 974 0.6 89
2019-11-28 06:00:00 11.6 12 Sudoeste 16 Oeste 0 973.6 0.4 89
2019-11-28 05:00:00 11.6 11 Sudoeste 19 Sudoeste 0 973.4 0.1 88
2019-11-28 04:00:00 11.3 8 Sudoeste 11 Sudoeste 0 973.4 -0.5 87
2019-11-28 03:00:00 11.5 6 Sudoeste 9 Oeste 0 973.2 -0.6 86
2019-11-28 02:00:00 11.3 2 Oeste 10 Sur 0 973.3 -0.2 85
2019-11-28 01:00:00 11.4 0 Calma 7 Este 0 973.9 0.8 83
2019-11-28 00:00:00 11.4 3 Sur 11 Sudoeste 0 973.8 0.8 82
2019-11-27 23:00:00 11.8 9 Oeste 21 Oeste 0 973.5 1 81
2019-11-27 22:00:00 11.6 8 Sudoeste 12 Sudoeste 0 973.1 1.4 82
2019-11-27 21:00:00 12.4 11 Oeste 24 Oeste 0 973 1.6 78
2019-11-27 20:00:00 12.8 13 Oeste 21 Sudoeste 0 972.5 1.1 77
2019-11-27 19:00:00 13.2 18 Sudoeste 26 Sudoeste 0 971.7 1.2 75
2019-11-27 18:00:00 14.2 20 Sudoeste 33 Sudoeste 0 971.4 0.4 69
2019-11-27 17:00:00 15.4 20 Oeste 36 Sudoeste 0 971.4 0 59
2019-11-27 16:00:00 15.8 21 Sudoeste 33 Oeste 0 970.5 -1.6 59
2019-11-27 15:00:00 16.1 24 Oeste 37 Oeste 0 971 -1.4 61
2019-11-27 14:00:00 15 24 Oeste 37 Oeste 0 971.4 -1.2 62
2019-11-27 06:00:00 12.2 12 Sudoeste 23 Sudoeste 0 970 0.4 88
2019-11-27 05:00:00 12.7 10 Sudoeste 27 Sudoeste 0 969.8 0.8 89
2019-11-27 04:00:00 12.8 16 Oeste 36 Oeste 0 970.1 0.2 89
2019-11-27 03:00:00 13.5 29 Oeste 44 Sudoeste 0.2 969.6 -0.6 89
2019-11-27 02:00:00 13.7 31 Sudoeste 43 Sudoeste 0 969 -1 90
2019-11-27 01:00:00 13.5 19 Sudoeste 35 Sudoeste 0 969.9 0.1 90
2019-11-27 00:00:00 13.4 24 Sudoeste 39 Sudoeste 0 970.2 0.6 90
2019-11-26 23:00:00 13.8 26 Sudoeste 36 Sudoeste 0 970 1 90
2019-11-26 22:00:00 14.1 21 Sudoeste 34 Sudoeste 0 969.8 1.1 91
2019-11-26 21:00:00 14.5 24 Sudoeste 46 Oeste 1.2 969.6 0.9 90
2019-11-26 20:00:00 14.3 25 Sudoeste 34 Sudoeste 2.4 969 0.6 92
2019-11-26 19:00:00 14.6 22 Sudoeste 51 Sudoeste 2.8 968.7 0.1 88
2019-11-26 18:00:00 17.2 30 Sudoeste 42 Sudoeste 0 968.7 -0.6 70
2019-11-26 17:00:00 17.7 31 Sudoeste 41 Sudoeste 0 968.4 -1.3 67
2019-11-26 16:00:00 17.8 27 Sudoeste 42 Sudoeste 0 968.6 -2.1 69
2019-11-26 15:00:00 18.1 29 Sudoeste 49 Sudoeste 0 969.3 -2.4 68
2019-11-26 14:00:00 17.6 34 Sudoeste 50 Sudoeste 0 969.7 -2.3 68
2019-11-26 13:00:00 16.7 26 Sudoeste 37 Sudoeste 0 970.7 -1.1 77
2019-11-26 12:00:00 15.6 25 Sudoeste 37 Sudoeste 0 971.7 -0.2 86
2019-11-26 11:00:00 14.9 22 Sudoeste 36 Sudoeste 0 972 0.3 92
2019-11-26 10:00:00 14.4 19 Sudoeste 24 Sudoeste 0.2 971.8 0 93
2019-11-26 09:00:00 13.8 10 Sudoeste 16 Sudoeste 0.2 971.9 0.1 93
2019-11-26 08:00:00 13.3 9 Sudoeste 14 Sudoeste 0.2 971.7 -0.5 93
2019-11-26 07:00:00 12.9 6 Sudoeste 16 Sudoeste 0.6 971.8 -0.8 92
2019-11-26 06:00:00 12.4 3 Este 6 Sudeste 0.2 971.8 -1.1 92
2019-11-26 05:00:00 12.9 4 Sur 9 Sur 0.6 972.2 -1.1 92
2019-11-26 04:00:00 12.2 4 Nordeste 5 Norte 0 972.6 -1.3 91
2019-11-26 03:00:00 12.2 0 Calma 4 Sudoeste 0 972.9 -1.2 89
2019-11-26 02:00:00 12.5 3 Oeste 8 Oeste 0 973.3 -1 89
2019-11-26 01:00:00 12.7 4 Nordeste 5 Sudoeste 0 973.9 -0.3 88
2019-11-26 00:00:00 12.9 3 Oeste 7 Sudoeste 0 974.1 0.2 87
2019-11-25 23:00:00 12.7 7 Oeste 13 Oeste 0 974.3 0.9 86
2019-11-25 22:00:00 13.3 13 Oeste 17 Oeste 0 974.2 1 84
2019-11-25 21:00:00 14.4 14 Oeste 23 Oeste 0 973.9 0.9 79
2019-11-25 20:00:00 14.8 16 Oeste 27 Oeste 0 973.4 0.7 78
2019-11-25 19:00:00 14.9 10 Sudoeste 17 Sudoeste 0 973.2 0.7 82
2019-11-25 18:00:00 16.4 12 Sudoeste 18 Sudoeste 0 973 0.4 76
2019-11-25 17:00:00 16.7 17 Sudoeste 26 Sudoeste 0 972.7 0.1 77
2019-11-25 16:00:00 17.5 19 Sudoeste 35 Sudoeste 0 972.5 -0.7 69
2019-11-25 15:00:00 18.4 23 Sudoeste 40 Sudoeste 0 972.6 -1.2 69
2019-11-25 14:00:00 17.5 23 Sudoeste 37 Sudoeste 0 972.6 -1 76
2019-11-25 13:00:00 16.4 22 Sudoeste 34 Sudoeste 0 973.2 0.4 87
2019-11-25 12:00:00 14.9 24 Sudoeste 37 Sudoeste 0 973.8 1.6 92
2019-11-25 11:00:00 14.6 28 Sudoeste 40 Sudoeste 0.2 973.6 1.9 93
2019-11-25 10:00:00 14.5 33 Sudoeste 42 Sudoeste 0.2 972.8 1.3 93
2019-11-25 09:00:00 14.2 30 Sudoeste 45 Sudoeste 0.4 972.2 0.7 93
2019-11-25 08:00:00 14 32 Sudoeste 48 Sudoeste 0.4 971.7 0.1 93
2019-11-25 07:00:00 13.8 33 Sudoeste 47 Sudoeste 0.2 971.5 -0.7 92
2019-11-25 06:00:00 13.5 30 Sudoeste 43 Sudoeste 0.2 971.5 -1 92
2019-11-25 05:00:00 13.5 30 Sudoeste 46 Sudoeste 0 971.6 -1.4 92
2019-11-25 04:00:00 13.1 21 Sudoeste 35 Sudoeste 0.4 972.2 -1.3 92
2019-11-25 03:00:00 12.7 18 Sudoeste 27 Sudoeste 0 972.5 -1.2 92
2019-11-25 02:00:00 12.1 7 Sudoeste 21 Sudoeste 0.2 973 -0.9 91
2019-11-25 01:00:00 11.6 9 Sudoeste 20 Sudoeste 0.4 973.5 -0.2 91
2019-11-25 00:00:00 11.9 17 Sudoeste 36 Sudoeste 0 973.7 0 86
2019-11-24 23:00:00 11.8 14 Sudoeste 33 Sudoeste 0 973.9 0.2 86
2019-11-24 22:00:00 11.8 9 Sudoeste 12 Sudoeste 0 973.7 0.5 81
2019-11-24 21:00:00 11.8 4 Sudoeste 10 Sudoeste 0 973.7 0.4 82
2019-11-24 20:00:00 12.1 7 Oeste 9 Oeste 0 973.7 0.5 81
2019-11-24 19:00:00 12.5 5 Sudoeste 23 Sudoeste 0 973.2 0.3 79
2019-11-24 18:00:00 13 23 Sudoeste 29 Oeste 0 973.3 0.4 74
2019-11-24 17:00:00 13.7 17 Sudoeste 28 Sudoeste 0 973.2 -0.4 67
2019-11-24 16:00:00 14 22 Sudoeste 30 Sudoeste 0 972.9 -1.1 63
2019-11-24 15:00:00 14.4 24 Sudoeste 32 Sudoeste 0 972.9 -1.7 61
2019-11-24 14:00:00 14.2 19 Sudoeste 28 Sudoeste 0 973.6 -1.4 65
2019-11-24 13:00:00 13 11 Sudoeste 17 Sudoeste 0 974 -0.4 73
2019-11-24 12:00:00 11.8 4 Sudoeste 8 Sur 0 974.6 0.8 82
2019-11-24 11:00:00 9 2 Sur 9 Sudeste 0 975 1.4 90
2019-11-24 10:00:00 7.9 3 Noroeste 5 Oeste 0 974.4 1.4 91
2019-11-24 09:00:00 7.1 4 Oeste 5 Sudeste 0 973.8 1.1 91
2019-11-24 08:00:00 6.9 2 Sudoeste 6 Sudoeste 0 973.6 1.5 90
2019-11-24 07:00:00 6.8 4 Sudoeste 6 Sudoeste 0 973 1 90
2019-11-24 06:00:00 6.7 5 Oeste 12 Oeste 0 972.7 0.6 90
2019-11-24 05:00:00 6.2 8 Oeste 11 Oeste 0 972.1 0.4 90
2019-11-24 04:00:00 6 4 Sur 9 Sudoeste 0 972 0 87
2019-11-24 03:00:00 6.9 4 Sudoeste 9 Sudoeste 0 972.1 0.2 88
2019-11-24 02:00:00 7 6 Oeste 8 Oeste 0 971.7 0 86
2019-11-24 01:00:00 7.3 7 Oeste 11 Oeste 0 972 0.4 85
2019-11-24 00:00:00 7.5 7 Oeste 16 Sudoeste 0 971.9 1 85
2019-11-23 23:00:00 7.6 15 Sudoeste 19 Sudoeste 0 971.7 1.7 84
2019-11-23 22:00:00 8.3 9 Sudoeste 17 Sudoeste 0 971.6 2.5 81
2019-11-23 21:00:00 9.5 12 Oeste 24 Oeste 0 970.9 2.8 76
2019-11-23 20:00:00 10.6 18 Oeste 30 Oeste 0 970 2.6 71
2019-11-23 19:00:00 11.4 20 Oeste 34 Oeste 0 969.1 2.3 66
2019-11-23 18:00:00 12.4 21 Oeste 37 Oeste 0 968.1 1.7 60
2019-11-23 17:00:00 13.6 23 Oeste 46 Oeste 0 967.4 0.8 53
2019-11-23 16:00:00 13.6 21 Noroeste 42 Oeste 0 966.8 0.4 54
2019-11-23 15:00:00 13.6 27 Oeste 47 Noroeste 0 966.4 0 54
2019-11-23 14:00:00 12.5 28 Oeste 43 Oeste 0 966.6 0.9 61
2019-11-23 13:00:00 12.8 26 Oeste 50 Oeste 0 966.4 1.9 62
2019-11-23 12:00:00 12.1 19 Oeste 45 Oeste 0 966.4 3 68
2019-11-23 11:00:00 10.7 26 Oeste 42 Oeste 0 965.7 4.1 73
2019-11-23 10:00:00 9.8 17 Oeste 32 Sudoeste 0 964.5 3.8 82
2019-11-23 09:00:00 9.3 19 Oeste 50 Oeste 0 963.4 3.4 85
2019-11-23 08:00:00 9.2 30 Oeste 42 Sudoeste 0 961.6 2 85
2019-11-23 07:00:00 9.7 25 Sudoeste 37 Sudoeste 0 960.7 1.6 83
2019-11-23 06:00:00 10.1 25 Oeste 57 Oeste 0 960 1.9 79
2019-11-23 05:00:00 10.8 31 Oeste 51 Oeste 0 959.6 2 79
2019-11-23 04:00:00 10.7 35 Oeste 55 Oeste 0 959.1 1.8 79
2019-11-23 03:00:00 10.8 39 Oeste 74 Oeste 0 958.1 1.1 75
2019-11-23 02:00:00 11.5 43 Sudoeste 72 Sudoeste 0 957.6 0.8 75
2019-11-23 01:00:00 12.1 48 Oeste 81 Oeste 0 957.3 0.9 76
2019-11-23 00:00:00 11.1 38 Sudoeste 53 Sudoeste 0 957 1.3 82
2019-11-22 23:00:00 11.6 38 Sudoeste 53 Oeste 0 956.8 1.8 76
2019-11-22 22:00:00 12 38 Sudoeste 75 Sudoeste 0 956.4 2 78
2019-11-22 21:00:00 12.6 47 Sudoeste 67 Oeste 0 955.7 2.2 78
2019-11-22 20:00:00 12.9 45 Sudoeste 66 Sudoeste 0 955 2.2 77
2019-11-22 19:00:00 13.4 46 Sudoeste 60 Oeste 0 954.4 2 71
2019-11-22 18:00:00 13.7 49 Oeste 76 Sudoeste 0 953.5 3.1 67
2019-11-22 17:00:00 14.7 44 Oeste 68 Oeste 0 952.8 0.7 73
2019-11-22 16:00:00 15 42 Oeste 90 Sudoeste 3.8 952.4 -1 83
2019-11-22 15:00:00 15.2 30 Sudoeste 57 Sudoeste 8.4 950.4 -4.1 92
2019-11-22 14:00:00 14.9 46 Sudoeste 67 Sudoeste 4 952.1 -4.4 92
2019-11-22 13:00:00 14.6 42 Sudoeste 63 Sudoeste 2.6 953.4 -2.9 91
2019-11-22 12:00:00 13.9 40 Sudoeste 63 Sudoeste 0.8 954.5 -2.7 90
2019-11-22 11:00:00 13.3 36 Sudoeste 61 Sudoeste 4.2 956.5 -1.4 91
2019-11-22 10:00:00 13.4 36 Sudoeste 54 Sudoeste 0.4 956.3 -2.3 89
2019-11-22 09:00:00 12.8 19 Sudoeste 32 Sudoeste 0.2 957.2 -2.8 89
2019-11-22 08:00:00 12.3 20 Sudoeste 31 Sudoeste 0.2 957.9 -2.8 89
2019-11-22 07:00:00 11.7 22 Sudoeste 35 Sudoeste 1 958.6 -3 90
2019-11-22 06:00:00 11.1 17 Sudoeste 27 Sudoeste 1 960 -2.4 90
2019-11-22 05:00:00 10.8 6 Sudoeste 11 Sur 0 960.7 -1.6 90
2019-11-22 04:00:00 11 6 Sudoeste 12 Sudoeste 0.4 961.6 -1.4 90
2019-11-22 03:00:00 11.1 6 Sudoeste 10 Sudoeste 0 962.4 -0.8 90
2019-11-22 02:00:00 11.3 8 Sudoeste 10 Sudoeste 0 962.3 -1.4 90
2019-11-22 01:00:00 11.3 6 Sudoeste 10 Sudoeste 0 963 -0.8 90
2019-11-22 00:00:00 11.1 5 Sudoeste 12 Sudoeste 0 963.2 -0.9 90
2019-11-21 23:00:00 11.3 7 Sudoeste 12 Sudoeste 0 963.7 -0.3 90
2019-11-21 22:00:00 11.3 4 Sudoeste 10 Sudoeste 0 963.8 0.1 89
2019-11-21 21:00:00 11.4 3 Oeste 8 Sudoeste 0 964.1 1.1 88
2019-11-21 20:00:00 11.6 4 Sudoeste 8 Oeste 0 964 1 87
2019-11-21 19:00:00 11.8 6 Oeste 17 Sudoeste 0 963.7 0.6 85
2019-11-21 18:00:00 12.8 16 Sudoeste 23 Sudoeste 0 963 -0.3 82
2019-11-21 17:00:00 14.2 17 Sudoeste 23 Sudoeste 0 963 -0.6 77
2019-11-21 16:00:00 14.5 16 Sudoeste 30 Sudoeste 0 963.1 -1.3 78
2019-11-21 15:00:00 13.5 19 Sudoeste 29 Sudoeste 0 963.3 -1.9 85
2019-11-21 14:00:00 13.2 14 Sudoeste 21 Sudoeste 0 963.6 -1.5 88
2019-11-21 13:00:00 12.4 10 Sudoeste 15 Sudoeste 0.4 964.4 -0.5 91
2019-11-21 12:00:00 12 10 Sudoeste 15 Sudoeste 1 965.2 0.7 92
2019-11-21 11:00:00 11.5 8 Sudoeste 13 Sudoeste 0.2 965.1 0.7 92
2019-11-21 10:00:00 10.9 10 Sudoeste 18 Sur 0.4 964.9 0.7 92
2019-11-21 09:00:00 10.8 14 Sudoeste 22 Sudoeste 0.4 964.5 0.5 91
2019-11-21 08:00:00 10.7 9 Sudoeste 13 Sudoeste 0.6 964.4 -0.1 90
2019-11-21 07:00:00 10.8 8 Sudoeste 17 Sudoeste 0 964.2 -0.7 89
2019-11-21 06:00:00 10.6 7 Sudoeste 10 Sudoeste 0 964 -1.2 90
2019-11-21 05:00:00 10.6 5 Oeste 15 Sudoeste 0 964.5 -0.6 90
2019-11-21 04:00:00 10.9 9 Sudoeste 14 Sur 0 964.9 -0.6 90
2019-11-21 03:00:00 10.8 4 Sudoeste 13 Sudoeste 0 965.2 -0.5 90
2019-11-21 02:00:00 10.7 6 Sudoeste 11 Sudoeste 0 965.1 -0.6 90
2019-11-21 01:00:00 10.6 8 Sudoeste 12 Sudoeste 0 965.5 -0.1 90
2019-11-21 00:00:00 10.4 5 Sudoeste 9 Sudoeste 0 965.7 0.5 89
2019-11-20 23:00:00 10.5 0 Calma 12 Sudoeste 0 965.7 0.8 88
2019-11-20 22:00:00 10.6 10 Sudoeste 18 Oeste 0.4 965.6 1.2 87
2019-11-20 21:00:00 10.6 9 Sudoeste 15 Sudoeste 0 965.2 1 88
2019-11-20 20:00:00 10.9 11 Sudoeste 18 Sudoeste 0 964.9 0.9 87
2019-11-20 19:00:00 11.3 9 Oeste 13 Sudoeste 0.4 964.4 0.4 83
2019-11-20 18:00:00 11.9 10 Sudoeste 15 Sur 0 964.2 0.1 77
2019-11-20 17:00:00 13.5 12 Sudoeste 29 Oeste 0 964 -0.5 68
2019-11-20 16:00:00 13.3 17 Sudoeste 35 Sudoeste 0 964 -1.4 68
2019-11-20 15:00:00 13.1 21 Sudoeste 31 Sudoeste 0 964.1 -2.1 78
2019-11-20 14:00:00 11.4 13 Sudoeste 24 Sudoeste 0 964.5 -1.9 85
2019-11-20 13:00:00 10.2 6 Sudoeste 12 Sudeste 0 965.4 -1 85
2019-11-20 12:00:00 9.2 5 Norte 11 Este 0.4 966.2 -0.7 86
2019-11-20 11:00:00 8 8 Nordeste 12 Este 2.8 966.4 -0.5 89
2019-11-20 10:00:00 7.3 12 Nordeste 36 Nordeste 1.2 966.4 0 91
2019-11-20 09:00:00 7.4 7 Norte 17 Noroeste 4 966.9 0.2 88
2019-11-20 08:00:00 7.7 3 Sudeste 10 Este 0.6 966.9 -0.2 84
2019-11-20 07:00:00 7.6 8 Nordeste 10 Nordeste 1.4 966.4 -1.4 86
2019-11-20 06:00:00 6.6 6 Este 9 Nordeste 1.2 966.7 -1.7 87
2019-11-20 05:00:00 6.7 2 Este 6 Nordeste 0 967.1 -1.9 87
2019-11-20 04:00:00 6.2 4 Nordeste 6 Nordeste 0 967.8 -1.9 88
2019-11-20 03:00:00 6.1 3 Este 7 Este 0 968.4 -1.8 88
2019-11-20 02:00:00 6.1 4 Oeste 8 Este 0 969 -1.5 87
2019-11-20 01:00:00 6.1 7 Este 10 Este 0 969.7 -1 87
2019-11-20 00:00:00 6.1 7 Este 9 Este 0 970.2 -0.6 85
2019-11-19 23:00:00 7.3 6 Este 12 Este 0 970.5 -0.7 81
2019-11-19 22:00:00 8.2 6 Nordeste 9 Este 0 970.7 -0.5 77
2019-11-19 21:00:00 8.2 5 Nordeste 6 Norte 0 970.8 -0.2 78
2019-11-19 20:00:00 9.6 5 Sudoeste 18 Noroeste 0 971.2 0.2 68
2019-11-19 19:00:00 9.8 13 Oeste 16 Oeste 0 971.2 0 71
2019-11-19 18:00:00 11.5 10 Oeste 17 Sudoeste 0 971 -0.7 65
2019-11-19 17:00:00 12.2 12 Sudoeste 20 Sudoeste 0 971 -1.3 65
2019-11-19 16:00:00 12.9 13 Sudoeste 20 Sudoeste 0 971.2 -1.9 62
2019-11-19 15:00:00 12.7 13 Sudoeste 21 Sudoeste 0 971.7 -2.3 58
2019-11-19 14:00:00 12.3 9 Sudoeste 14 Sudoeste 0 972.3 -2.1 62
2019-11-19 13:00:00 10.8 2 Sur 7 Sudoeste 0 973.1 -1.3 75
2019-11-19 12:00:00 8.7 2 Sur 8 Este 0 974 -0.1 86
2019-11-19 11:00:00 5.2 4 Este 7 Este 0 974.4 0.6 91
2019-11-19 10:00:00 3.7 2 Nordeste 5 Este 0 974.4 0.9 92
2019-11-19 09:00:00 2.7 3 Sudoeste 7 Este 0 974.1 0.7 93
2019-11-19 08:00:00 2.5 3 Sudeste 9 Este 0 973.8 0.4 92
2019-11-19 07:00:00 2.6 8 Este 11 Este 0 973.5 -0.1 92
2019-11-19 06:00:00 2.8 6 Sudeste 9 Este 0 973.4 -0.2 91
2019-11-19 05:00:00 4.2 4 Este 9 Nordeste 0 973.4 -0.3 91
2019-11-19 04:00:00 3.4 4 Nordeste 8 Nordeste 0 973.6 -0.3 91
2019-11-19 03:00:00 4.2 6 Oeste 8 Sudeste 0 973.6 -0.5 90
2019-11-19 02:00:00 4.4 7 Oeste 9 Sudoeste 0 973.7 -0.9 88
2019-11-19 01:00:00 5.4 3 Este 8 Nordeste 0 973.9 -0.4 84
2019-11-19 00:00:00 5.9 8 Nordeste 10 Sudoeste 0 974.1 0.1 85
2019-11-18 23:00:00 6.3 7 Este 9 Este 0 974.6 1.1 82
2019-11-18 22:00:00 8 5 Este 10 Este 0 974.3 1.4 74
2019-11-18 21:00:00 8.2 2 Sudeste 12 Sudeste 0 974 1.4 73
2019-11-18 20:00:00 9.9 6 Este 13 Noroeste 0 973.5 1.3 64
2019-11-18 19:00:00 11.1 10 Noroeste 14 Noroeste 0 972.9 0.8 58
2019-11-18 18:00:00 12.2 9 Noroeste 17 Noroeste 0 972.6 0.5 53
2019-11-18 17:00:00 13.1 13 Noroeste 21 Noroeste 0 972.2 0.3 51
2019-11-18 16:00:00 13.6 10 Norte 22 Oeste 0 972.1 -0.3 52
2019-11-18 15:00:00 13.4 13 Noroeste 24 Noroeste 0 972.1 -0.9 51
2019-11-18 14:00:00 12.9 8 Noroeste 18 Noroeste 0 971.9 -1 53
2019-11-18 13:00:00 11.8 9 Noroeste 23 Norte 0 972.4 -0.2 57
2019-11-18 12:00:00 11.5 6 Sur 13 Sudoeste 0 973 1.4 67
2019-11-18 11:00:00 8.7 12 Sudoeste 16 Sudoeste 0 972.9 2.1 81
2019-11-18 10:00:00 7.3 9 Sudoeste 16 Sudoeste 0 972.6 2 85
2019-11-18 09:00:00 6 12 Sudoeste 23 Oeste 0 971.6 1.8 88
2019-11-18 08:00:00 5 12 Sudoeste 18 Sudoeste 0 970.8 1.2 89
2019-11-18 07:00:00 5 6 Sur 23 Oeste 0 970.6 1.2 89
2019-11-18 06:00:00 5.5 17 Oeste 24 Oeste 0 969.8 0.4 87
2019-11-18 05:00:00 5.9 19 Oeste 32 Noroeste 0 969.6 0.4 85
2019-11-18 04:00:00 6.1 14 Oeste 26 Oeste 0 969.4 0.7 88
2019-11-18 03:00:00 6.8 22 Oeste 28 Oeste 0 969.4 0.7 88
2019-11-18 02:00:00 8.2 22 Oeste 37 Oeste 0 969.2 0.8 81
2019-11-18 01:00:00 9.5 12 Oeste 37 Oeste 0 968.7 0 82
2019-11-18 00:00:00 11.4 31 Oeste 57 Oeste 1 968.7 -0.5 88
2019-11-17 23:00:00 11.9 31 Sudoeste 53 Oeste 0.6 968.4 -1.3 89
2019-11-17 22:00:00 12.4 33 Sudoeste 50 Sudoeste 1 968.7 -1.3 92
2019-11-17 21:00:00 12.4 31 Sudoeste 47 Sudoeste 0.2 969.2 -0.9 90
2019-11-17 20:00:00 12.3 32 Oeste 44 Oeste 2.4 969.7 -0.6 90
2019-11-17 19:00:00 12.9 30 Oeste 45 Oeste 1.8 970 -0.5 90
2019-11-17 18:00:00 13.1 27 Sudoeste 40 Sudoeste 1.2 970.1 -1.1 91
2019-11-17 17:00:00 13 28 Sudoeste 51 Oeste 0.2 970.3 -1.7 91
2019-11-17 16:00:00 13.4 22 Sudoeste 46 Sudoeste 1.4 970.5 -2.1 92
2019-11-17 15:00:00 12.8 21 Sudoeste 37 Sudoeste 2.2 971.2 -2.1 93
2019-11-17 14:00:00 12.6 24 Sudoeste 32 Sudoeste 1 972 -1.7 93
2019-11-17 13:00:00 11.9 26 Sudoeste 37 Sudoeste 1.2 972.6 -1.1 93
2019-11-17 12:00:00 11.3 24 Sudoeste 33 Sudoeste 0 973.3 -0.1 93
2019-11-17 11:00:00 10.2 20 Sudoeste 28 Sudoeste 0.2 973.7 0.4 93
2019-11-17 10:00:00 9 13 Oeste 24 Oeste 0 973.7 0.6 92
2019-11-17 09:00:00 7.3 9 Oeste 17 Sudoeste 0.2 973.4 0 92
2019-11-17 08:00:00 7.1 5 Noroeste 9 Oeste 0.2 973.3 -0.3 92
2019-11-17 07:00:00 6.2 6 Oeste 15 Oeste 0.2 973.1 -1 91
2019-11-17 06:00:00 5 9 Oeste 12 Sudoeste 0.2 973.4 -1 86
2019-11-17 05:00:00 5.8 5 Oeste 5 Oeste 0 973.6 -1 83
2019-11-17 04:00:00 5.7 5 Oeste 7 Sudoeste 0 974.1 -0.9 79
2019-11-17 03:00:00 5.3 5 Sudoeste 7 Sudoeste 0 974.4 -0.7 74
2019-11-17 02:00:00 5.3 4 Sudoeste 7 Sudoeste 0 974.6 -0.5 72
2019-11-17 01:00:00 5.4 5 Sudoeste 6 Sudoeste 0 975 0 71
2019-11-17 00:00:00 6 5 Oeste 16 Oeste 0 975.1 0.2 68
2019-11-16 23:00:00 6.8 10 Noroeste 15 Oeste 0 975.1 0.6 64
2019-11-16 22:00:00 6.7 6 Sudoeste 13 Sudoeste 0 975 1 64
2019-11-16 21:00:00 7.6 8 Sudoeste 13 Sudoeste 0 974.9 1.3 59
2019-11-16 20:00:00 9.1 6 Oeste 18 Oeste 0 974.5 1.2 53
2019-11-16 19:00:00 9.7 13 Oeste 20 Sudoeste 0 974 1.1 50
2019-11-16 18:00:00 11.6 15 Sudoeste 26 Oeste 0 973.6 0.8 44
2019-11-16 17:00:00 12.8 17 Oeste 34 Oeste 0 973.3 0.5 40
2019-11-16 16:00:00 13.4 21 Oeste 32 Oeste 0 972.9 -0.1 35
2019-11-16 15:00:00 13.2 19 Sudoeste 30 Sudoeste 0 972.8 -0.5 40
2019-11-16 14:00:00 12.7 10 Noroeste 24 Sur 0 972.8 -0.3 42
2019-11-16 13:00:00 12.1 8 Sudoeste 15 Sudoeste 0 973 0.4 50
2019-11-16 12:00:00 10.1 9 Sudoeste 14 Sudoeste 0 973.3 1.7 58
2019-11-16 11:00:00 7.1 6 Sudoeste 9 Sudoeste 0 973.1 2.5 68
2019-11-16 10:00:00 4.2 5 Sudoeste 10 Sudoeste 0 972.6 2.8 81
2019-11-16 09:00:00 1.6 9 Sudoeste 12 Oeste 0 971.6 2.4 87
2019-11-16 08:00:00 1.2 5 Sudoeste 10 Sur 0 970.6 2.1 87
2019-11-16 07:00:00 1.5 5 Sudoeste 12 Este 0 969.8 1.6 86
2019-11-16 06:00:00 1.8 7 Sudoeste 12 Sudoeste 0 969.2 1.4 84
2019-11-16 05:00:00 3.2 6 Oeste 13 Noroeste 0 968.5 1.1 78
2019-11-16 04:00:00 2.5 4 Sur 10 Sudoeste 0 968.2 1 82
2019-11-16 03:00:00 2.6 8 Sudoeste 15 Sudoeste 0 967.8 0.9 80
2019-11-16 02:00:00 3.5 10 Sudoeste 15 Sudoeste 0 967.4 0.7 77
2019-11-16 01:00:00 4.4 7 Sudoeste 18 Oeste 0 967.2 1 73
2019-11-16 00:00:00 5.5 6 Sudoeste 24 Oeste 0 966.9 1.1 67